createdAt,value
2018-04-17T00:01:42.109Z,7.90
2018-04-17T00:06:15.883Z,8.00
2018-04-17T00:10:49.847Z,7.90
2018-04-17T00:15:23.037Z,7.80
2018-04-17T00:19:56.248Z,7.80
2018-04-17T00:24:29.456Z,7.70
2018-04-17T00:29:02.683Z,7.60
2018-04-17T00:33:35.900Z,7.40
2018-04-17T00:38:09.091Z,7.20
2018-04-17T00:42:42.541Z,7.20
2018-04-17T00:47:15.862Z,7.10
2018-04-17T00:51:49.803Z,6.80
2018-04-17T00:56:23.022Z,6.70
2018-04-17T01:00:56.207Z,6.90
2018-04-17T01:05:30.198Z,6.90
2018-04-17T01:10:04.185Z,7.00
2018-04-17T01:14:37.395Z,7.00
2018-04-17T01:19:10.619Z,6.80
2018-04-17T01:23:43.803Z,6.70
2018-04-17T01:28:16.981Z,6.60
2018-04-17T01:32:50.958Z,6.50
2018-04-17T01:37:24.136Z,6.50
2018-04-17T01:41:57.351Z,6.60
2018-04-17T01:46:30.543Z,6.70
2018-04-17T01:51:03.734Z,6.70
2018-04-17T01:55:37.687Z,6.50
2018-04-17T02:00:10.878Z,6.40
2018-04-17T02:04:44.091Z,6.30
2018-04-17T02:09:17.295Z,6.30
2018-04-17T02:13:50.454Z,6.10
2018-04-17T02:18:23.654Z,6.00
2018-04-17T02:22:56.822Z,6.00
2018-04-17T02:27:30.030Z,5.90
2018-04-17T02:32:03.187Z,6.00
2018-04-17T02:36:36.377Z,6.10
2018-04-17T02:41:10.529Z,6.10
2018-04-17T02:45:44.480Z,5.90
2018-04-17T02:50:17.692Z,5.90
2018-04-17T02:54:50.886Z,5.90
2018-04-17T02:59:24.085Z,5.80
2018-04-17T03:03:58.053Z,5.70
2018-04-17T03:08:31.264Z,5.70
2018-04-17T03:13:04.485Z,5.60
2018-04-17T03:17:37.698Z,5.40
2018-04-17T03:22:12.390Z,5.30
2018-04-17T03:26:45.629Z,5.30
2018-04-17T03:31:18.809Z,5.20
2018-04-17T03:35:52.020Z,5.20
2018-04-17T03:40:25.199Z,5.40
2018-04-17T03:44:58.426Z,5.20
2018-04-17T03:49:31.590Z,5.30
2018-04-17T03:54:05.567Z,5.00
2018-04-17T03:58:38.807Z,5.00
2018-04-17T04:03:11.990Z,4.90
2018-04-17T04:07:45.216Z,4.70
2018-04-17T04:12:18.434Z,4.70
2018-04-17T04:17:03.524Z,4.70
2018-04-17T04:21:49.696Z,4.50
2018-04-17T04:26:31.890Z,4.40
2018-04-17T04:31:05.109Z,4.60
2018-04-17T04:35:38.341Z,4.60
2018-04-17T04:40:11.573Z,4.60
2018-04-17T04:44:44.756Z,4.70
2018-04-17T04:49:17.944Z,4.60
2018-04-17T04:53:51.165Z,4.70
2018-04-17T04:58:24.361Z,4.70
2018-04-17T05:02:57.512Z,4.60
2018-04-17T05:07:30.743Z,4.70
2018-04-17T05:12:03.932Z,4.50
2018-04-17T05:16:37.883Z,4.80
2018-04-17T05:21:11.129Z,4.70
2018-04-17T05:25:44.372Z,4.90
2018-04-17T05:30:18.700Z,5.00
2018-04-17T05:34:51.884Z,5.00
2018-04-17T05:39:25.071Z,5.00
2018-04-17T05:43:58.289Z,5.10
2018-04-17T05:48:31.493Z,5.30
2018-04-17T05:53:04.941Z,5.40
2018-04-17T05:57:39.011Z,5.80
2018-04-17T06:02:12.194Z,5.70
2018-04-17T06:06:45.386Z,6.00
2018-04-17T06:11:19.302Z,6.50
2018-04-17T06:15:53.249Z,7.00
2018-04-17T06:20:26.570Z,7.00
2018-04-17T06:24:59.781Z,7.20
2018-04-17T06:29:32.995Z,7.40
2018-04-17T06:34:06.199Z,7.80
2018-04-17T06:38:39.359Z,8.30
2018-04-17T06:43:12.631Z,8.60
2018-04-17T06:47:46.061Z,8.70
2018-04-17T06:52:19.479Z,8.90
2018-04-17T06:56:52.671Z,9.30
2018-04-17T07:01:26.680Z,10.00
2018-04-17T07:05:59.898Z,10.50
2018-04-17T07:10:33.123Z,10.60
2018-04-17T07:15:07.151Z,11.30
2018-04-17T07:19:41.126Z,12.20
2018-04-17T07:24:14.345Z,12.10
2018-04-17T07:28:47.549Z,12.40
2018-04-17T07:33:20.714Z,12.80
2018-04-17T07:37:54.703Z,13.80
2018-04-17T07:42:27.915Z,13.70
2018-04-17T07:52:10.441Z,15.10
2018-04-17T07:56:43.634Z,16.60
2018-04-17T08:01:16.852Z,17.40
2018-04-17T08:05:50.039Z,18.70
2018-04-17T08:10:23.238Z,20.50
2018-04-17T08:14:56.869Z,21.50
2018-04-17T08:19:30.103Z,23.60
2018-04-17T08:24:03.306Z,24.10
2018-04-17T08:28:36.667Z,24.90
2018-04-17T08:33:10.633Z,24.00
2018-04-17T08:37:43.861Z,23.90
2018-04-17T08:42:17.075Z,24.40
2018-04-17T08:46:50.314Z,25.10
2018-04-17T08:51:24.286Z,26.70
2018-04-17T08:55:57.545Z,26.60
2018-04-17T09:00:31.483Z,27.20
2018-04-17T09:05:05.463Z,27.60
2018-04-17T09:09:38.703Z,27.50
2018-04-17T09:14:12.700Z,29.20
2018-04-17T09:18:45.912Z,29.00
2018-04-17T09:23:19.074Z,27.30
2018-04-17T09:27:52.301Z,27.20
2018-04-17T09:32:25.658Z,28.30
2018-04-17T09:36:59.684Z,28.90
2018-04-17T09:41:34.365Z,28.20
2018-04-17T09:46:07.592Z,28.10
2018-04-17T09:50:40.815Z,27.60
2018-04-17T09:55:14.045Z,27.60
2018-04-17T09:59:48.006Z,28.20
2018-04-17T10:04:21.317Z,28.10
2018-04-17T10:08:55.168Z,28.10
2018-04-17T10:13:28.817Z,27.70
2018-04-17T10:18:02.758Z,29.50
2018-04-17T10:22:36.738Z,28.90
2018-04-17T10:27:11.031Z,28.80
2018-04-17T10:31:44.248Z,27.50
2018-04-17T10:36:17.469Z,27.40
2018-04-17T10:40:50.645Z,28.00
2018-04-17T10:45:23.860Z,28.70
2018-04-17T10:49:57.176Z,29.70
2018-04-17T10:54:31.189Z,28.70
2018-04-17T10:59:04.377Z,27.00
2018-04-17T11:03:38.383Z,28.70
2018-04-17T11:08:11.551Z,28.60
2018-04-17T11:12:44.755Z,29.90
2018-04-17T11:17:18.011Z,28.40
2018-04-17T11:21:51.963Z,30.70
2018-04-17T11:26:25.162Z,30.60
2018-04-17T11:30:58.472Z,30.40
2018-04-17T11:35:31.862Z,29.50
2018-04-17T11:40:05.844Z,30.90
2018-04-17T11:44:39.042Z,30.90
2018-04-17T11:49:12.247Z,30.80
2018-04-17T11:53:45.546Z,31.70
2018-04-17T11:58:18.924Z,32.70
2018-04-17T12:02:53.038Z,32.50
2018-04-17T12:07:27.084Z,31.70
2018-04-17T12:12:01.100Z,32.40
2018-04-17T12:16:35.090Z,32.30
2018-04-17T12:21:08.327Z,32.30
2018-04-17T12:25:42.282Z,32.30
2018-04-17T12:30:15.491Z,32.20
2018-04-17T12:34:48.698Z,32.90
2018-04-17T12:39:21.957Z,31.10
2018-04-17T12:43:55.169Z,31.70
2018-04-17T12:48:28.361Z,31.60
2018-04-17T12:53:01.567Z,31.00
2018-04-17T12:57:34.730Z,30.80
2018-04-17T13:02:08.013Z,29.90
2018-04-17T13:06:42.039Z,32.70
2018-04-17T13:11:16.034Z,31.00
2018-04-17T13:15:49.395Z,30.90
2018-04-17T13:20:22.682Z,31.70
2018-04-17T13:24:56.710Z,31.90
2018-04-17T13:29:29.964Z,31.90
2018-04-17T13:34:03.145Z,30.50
2018-04-17T13:38:36.370Z,30.00
2018-04-17T13:43:09.615Z,29.60
2018-04-17T13:47:42.834Z,29.20
2018-04-17T13:52:16.259Z,28.80
2018-04-17T13:56:50.218Z,28.20
2018-04-17T14:01:23.464Z,28.10
2018-04-17T14:05:56.679Z,27.40
2018-04-17T14:10:29.845Z,26.70
2018-04-17T14:15:03.060Z,26.20
2018-04-17T14:19:36.278Z,26.30
2018-04-17T14:24:09.503Z,25.90
2018-04-17T14:28:42.749Z,25.40
2018-04-17T14:33:15.985Z,25.20
2018-04-17T14:37:49.413Z,25.10
2018-04-17T14:42:22.633Z,25.40
2018-04-17T14:46:56.533Z,25.80
2018-04-17T14:51:29.804Z,25.70
2018-04-17T14:56:03.003Z,25.80
2018-04-17T15:00:36.188Z,26.30
2018-04-17T15:05:09.387Z,26.70
2018-04-17T15:09:42.588Z,26.60
2018-04-17T15:14:15.786Z,26.20
2018-04-17T15:18:49.046Z,25.80
2018-04-17T15:23:22.222Z,25.40
2018-04-17T15:27:55.453Z,25.00
2018-04-17T15:32:29.479Z,25.40
2018-04-17T15:37:03.475Z,25.10
2018-04-17T15:41:36.665Z,25.10
2018-04-17T15:46:09.888Z,24.90
2018-04-17T15:50:43.107Z,24.60
2018-04-17T15:55:16.354Z,24.50
2018-04-17T15:59:49.548Z,23.70
2018-04-17T16:04:22.733Z,23.60
2018-04-17T16:08:56.708Z,24.10
2018-04-17T16:13:29.922Z,24.00
2018-04-17T16:18:03.085Z,24.20
2018-04-17T16:22:37.079Z,24.00
2018-04-17T16:27:10.872Z,24.00
2018-04-17T16:31:44.088Z,24.00
2018-04-17T16:36:17.301Z,23.90
2018-04-17T16:40:50.513Z,24.00
2018-04-17T16:45:23.696Z,23.80
2018-04-17T16:49:56.911Z,23.40
2018-04-17T16:54:30.127Z,23.40
2018-04-17T16:59:03.325Z,23.40
2018-04-17T17:03:36.526Z,23.40
2018-04-17T17:08:09.721Z,23.30
2018-04-17T17:12:42.950Z,23.20
2018-04-17T17:17:16.188Z,23.10
2018-04-17T17:21:50.145Z,22.90
2018-04-17T17:26:23.350Z,22.80
2018-04-17T17:30:56.596Z,22.70
2018-04-17T17:35:29.839Z,22.50
2018-04-17T17:40:03.894Z,22.20
2018-04-17T17:44:37.095Z,22.20
2018-04-17T17:49:10.280Z,22.10
2018-04-17T17:53:44.258Z,21.30
2018-04-17T17:58:17.442Z,21.20
2018-04-17T18:02:50.662Z,20.90
2018-04-17T18:07:23.892Z,20.50
2018-04-17T18:11:57.122Z,20.30
2018-04-17T18:16:30.347Z,20.20
2018-04-17T18:21:04.310Z,19.10
2018-04-17T18:25:37.518Z,19.00
2018-04-17T18:30:10.725Z,18.60
2018-04-17T18:34:43.934Z,18.50
2018-04-17T18:39:17.139Z,18.30
2018-04-17T18:43:50.333Z,18.10
2018-04-17T18:48:23.528Z,18.00
2018-04-17T18:52:56.747Z,17.80
2018-04-17T18:57:29.976Z,17.60
2018-04-17T19:02:03.195Z,17.40
2018-04-17T19:06:36.427Z,17.10
2018-04-17T19:11:10.357Z,16.20
2018-04-17T19:15:44.323Z,16.00
2018-04-17T19:20:17.511Z,15.90
2018-04-17T19:24:50.756Z,16.00
2018-04-17T19:29:23.929Z,15.50
2018-04-17T19:33:57.150Z,15.20
2018-04-17T19:38:30.535Z,15.00
2018-04-17T19:43:03.746Z,15.20
2018-04-17T19:47:37.033Z,15.20
2018-04-17T19:52:10.324Z,15.10
2018-04-17T19:56:43.603Z,14.90
2018-04-17T20:01:16.832Z,14.80
2018-04-17T20:05:50.042Z,14.40
2018-04-17T20:10:23.267Z,14.10
2018-04-17T20:14:57.209Z,14.20
2018-04-17T20:19:30.414Z,14.10
2018-04-17T20:24:04.404Z,14.10
2018-04-17T20:28:37.587Z,14.00
2018-04-17T20:33:14.260Z,13.90
2018-04-17T20:37:47.565Z,13.60
2018-04-17T20:42:21.273Z,13.50
2018-04-17T20:46:54.509Z,13.20
2018-04-17T20:51:27.753Z,13.10
2018-04-17T20:56:01.019Z,13.00
2018-04-17T21:00:34.226Z,13.00
2018-04-17T21:05:07.449Z,12.80
2018-04-17T21:09:40.633Z,12.80
2018-04-17T21:14:14.071Z,12.70
2018-04-17T21:18:47.299Z,12.70
2018-04-17T21:23:20.521Z,12.50
2018-04-17T21:27:54.471Z,12.20
2018-04-17T21:32:27.939Z,12.10
2018-04-17T21:37:01.196Z,12.30
2018-04-17T21:41:34.409Z,12.30
2018-04-17T21:46:07.636Z,12.40
2018-04-17T21:50:40.847Z,12.30
2018-04-17T21:55:14.090Z,12.20
2018-04-17T21:59:48.317Z,11.80
2018-04-17T22:04:21.590Z,11.80
2018-04-17T22:08:54.815Z,11.60
2018-04-17T22:13:28.025Z,11.50
2018-04-17T22:18:01.224Z,11.40
2018-04-17T22:22:34.436Z,11.30
2018-04-17T22:27:07.630Z,11.00
2018-04-17T22:31:40.846Z,10.90
2018-04-17T22:36:14.039Z,11.00
2018-04-17T22:40:47.280Z,11.20
2018-04-17T22:45:21.295Z,10.90
2018-04-17T22:49:54.550Z,10.80
2018-04-17T22:54:27.821Z,10.90
2018-04-17T22:59:01.815Z,10.80
2018-04-17T23:03:35.079Z,10.70
2018-04-17T23:08:08.282Z,10.90
2018-04-17T23:12:41.473Z,10.90
2018-04-17T23:17:15.436Z,10.50
2018-04-17T23:21:48.650Z,10.50
2018-04-17T23:26:21.886Z,10.40
2018-04-17T23:30:55.074Z,10.30
2018-04-17T23:35:28.262Z,10.30
2018-04-17T23:40:01.463Z,10.10
2018-04-17T23:44:34.875Z,9.90
2018-04-17T23:49:08.050Z,9.80
2018-04-17T23:53:42.055Z,9.60
2018-04-17T23:58:15.286Z,9.50
